createdAt,value
2023-03-29T00:01:53.976Z,3.10
2023-03-29T00:04:27.521Z,3.50
2023-03-29T00:07:04.029Z,3.80
2023-03-29T00:09:37.152Z,3.35
2023-03-29T00:12:11.044Z,3.00
2023-03-29T00:14:45.151Z,3.22
2023-03-29T00:17:17.936Z,2.95
2023-03-29T00:19:50.587Z,2.90
2023-03-29T00:22:23.237Z,3.83
2023-03-29T00:24:56.318Z,3.50
2023-03-29T00:27:29.175Z,2.80
2023-03-29T00:30:04.036Z,2.92
2023-03-29T00:32:36.978Z,3.30
2023-03-29T00:35:09.946Z,3.35
2023-03-29T00:37:42.621Z,3.10
2023-03-29T00:40:15.822Z,3.38
2023-03-29T00:42:48.593Z,2.83
2023-03-29T00:45:25.148Z,2.80
2023-03-29T00:47:59.951Z,3.13
2023-03-29T00:53:06.906Z,3.05
2023-03-29T00:55:42.192Z,3.42
2023-03-29T00:58:16.673Z,3.00
2023-03-29T01:00:53.208Z,2.92
2023-03-29T01:03:34.363Z,3.22
2023-03-29T01:06:11.518Z,3.00
2023-03-29T01:08:48.247Z,3.58
2023-03-29T01:11:31.179Z,4.68
2023-03-29T01:14:26.413Z,5.00
2023-03-29T01:17:19.553Z,3.15
2023-03-29T01:20:10.837Z,3.17
2023-03-29T01:23:01.622Z,3.05
2023-03-29T01:25:54.869Z,2.90
2023-03-29T01:28:36.367Z,2.70
2023-03-29T01:31:28.010Z,2.70
2023-03-29T01:34:09.975Z,2.85
2023-03-29T01:36:49.357Z,3.00
2023-03-29T01:39:21.995Z,2.90
2023-03-29T01:42:00.354Z,2.95
2023-03-29T01:44:49.856Z,3.22
2023-03-29T01:47:32.277Z,2.95
2023-03-29T01:50:12.612Z,3.10
2023-03-29T01:52:53.744Z,3.28
2023-03-29T01:55:28.410Z,2.40
2023-03-29T01:58:01.849Z,2.90
2023-03-29T02:00:37.199Z,2.60
2023-03-29T02:03:10.868Z,3.03
2023-03-29T02:05:47.234Z,2.83
2023-03-29T02:08:26.463Z,2.47
2023-03-29T02:11:04.535Z,3.10
2023-03-29T02:13:58.731Z,2.83
2023-03-29T02:16:37.461Z,2.70
2023-03-29T02:19:10.747Z,2.35
2023-03-29T02:21:48.191Z,3.58
2023-03-29T02:24:22.738Z,3.30
2023-03-29T02:26:55.726Z,2.90
2023-03-29T02:29:28.826Z,3.35
2023-03-29T02:32:09.648Z,3.47
2023-03-29T02:34:47.598Z,3.33
2023-03-29T02:37:21.677Z,3.70
2023-03-29T02:39:54.481Z,3.50
2023-03-29T02:42:28.031Z,3.22
2023-03-29T02:45:01.768Z,3.53
2023-03-29T02:47:39.176Z,4.13
2023-03-29T02:50:12.380Z,3.10
2023-03-29T02:52:48.485Z,4.03
2023-03-29T02:55:22.509Z,3.28
2023-03-29T02:57:55.083Z,4.07
2023-03-29T03:00:28.615Z,3.58
2023-03-29T03:03:03.176Z,3.60
2023-03-29T03:05:36.048Z,3.75
2023-03-29T03:08:09.074Z,3.22
2023-03-29T03:10:42.136Z,3.67
2023-03-29T03:13:14.779Z,4.30
2023-03-29T03:15:49.137Z,3.38
2023-03-29T03:18:23.291Z,4.05
2023-03-29T03:20:56.790Z,3.88
2023-03-29T03:23:30.317Z,3.47
2023-03-29T03:26:03.049Z,3.45
2023-03-29T03:28:37.403Z,3.60
2023-03-29T03:31:13.848Z,3.58
2023-03-29T03:34:14.249Z,3.47
2023-03-29T03:36:55.428Z,2.92
2023-03-29T03:39:28.709Z,3.75
2023-03-29T03:42:01.437Z,3.38
2023-03-29T03:44:34.497Z,3.85
2023-03-29T03:47:27.154Z,4.35
2023-03-29T03:50:03.899Z,3.13
2023-03-29T03:52:36.686Z,3.15
2023-03-29T03:55:09.642Z,3.35
2023-03-29T03:58:08.525Z,3.55
2023-03-29T04:00:41.737Z,3.63
2023-03-29T04:03:35.843Z,3.20
2023-03-29T04:06:10.040Z,4.75
2023-03-29T04:09:14.796Z,3.08
2023-03-29T04:11:53.001Z,3.75
2023-03-29T04:14:25.897Z,3.15
2023-03-29T04:17:10.250Z,3.13
2023-03-29T04:19:53.349Z,3.13
2023-03-29T04:22:27.680Z,2.83
2023-03-29T04:25:00.685Z,2.60
2023-03-29T04:28:05.585Z,3.72
2023-03-29T04:30:54.246Z,3.78
2023-03-29T04:33:47.465Z,3.83
2023-03-29T04:36:21.315Z,3.28
2023-03-29T04:38:55.390Z,3.42
2023-03-29T04:41:29.376Z,3.75
2023-03-29T04:44:09.495Z,3.72
2023-03-29T04:46:42.923Z,3.95
2023-03-29T04:49:16.455Z,3.38
2023-03-29T04:51:53.196Z,4.57
2023-03-29T04:54:30.342Z,4.85
2023-03-29T04:57:06.069Z,4.97
2023-03-29T04:59:57.380Z,5.07
2023-03-29T05:03:04.427Z,4.23
2023-03-29T05:05:40.312Z,5.35
2023-03-29T05:08:13.007Z,5.47
2023-03-29T05:11:13.591Z,5.35
2023-03-29T05:13:47.866Z,3.83
2023-03-29T05:16:20.691Z,5.35
2023-03-29T05:18:55.254Z,6.32
2023-03-29T05:21:28.423Z,4.78
2023-03-29T05:24:04.553Z,5.20
2023-03-29T05:27:02.305Z,4.40
2023-03-29T05:29:37.419Z,4.80
2023-03-29T05:35:06.921Z,5.07
2023-03-29T05:40:15.322Z,4.55
2023-03-29T05:43:09.370Z,4.75
2023-03-29T05:45:42.166Z,5.80
2023-03-29T05:48:14.916Z,6.05
2023-03-29T05:50:49.543Z,5.72
2023-03-29T05:53:23.869Z,5.43
2023-03-29T05:55:57.350Z,4.47
2023-03-29T05:58:34.758Z,4.50
2023-03-29T06:01:11.506Z,5.73
2023-03-29T06:04:10.708Z,6.25
2023-03-29T06:06:50.159Z,6.05
2023-03-29T06:09:23.871Z,5.57
2023-03-29T06:12:05.160Z,5.55
2023-03-29T06:15:04.661Z,5.15
2023-03-29T06:17:47.146Z,5.55
2023-03-29T06:20:20.600Z,5.05
2023-03-29T06:22:59.062Z,6.25
2023-03-29T06:25:33.785Z,5.18
2023-03-29T06:28:09.815Z,5.45
2023-03-29T06:30:45.936Z,5.47
2023-03-29T06:33:20.410Z,4.28
2023-03-29T06:36:07.931Z,5.65
2023-03-29T06:38:41.568Z,4.07
2023-03-29T06:41:26.405Z,6.15
2023-03-29T06:44:21.637Z,5.38
2023-03-29T06:47:08.145Z,5.35
2023-03-29T06:49:41.508Z,6.00
2023-03-29T06:52:35.609Z,5.93
2023-03-29T06:55:09.013Z,5.50
2023-03-29T06:57:44.514Z,5.23
2023-03-29T07:00:18.194Z,5.63
2023-03-29T07:03:23.344Z,5.15
2023-03-29T07:06:02.615Z,5.20
2023-03-29T07:08:40.731Z,5.18
2023-03-29T07:11:20.299Z,5.57
2023-03-29T07:13:58.048Z,5.40
2023-03-29T07:16:32.655Z,4.60
2023-03-29T07:19:15.933Z,5.00
2023-03-29T07:22:00.888Z,4.80
2023-03-29T07:24:44.845Z,5.40
2023-03-29T07:27:18.028Z,4.80
2023-03-29T07:29:54.253Z,4.85
2023-03-29T07:32:27.970Z,4.78
2023-03-29T07:35:19.217Z,6.88
2023-03-29T07:37:52.528Z,5.73
2023-03-29T07:40:28.136Z,5.30
2023-03-29T07:43:08.728Z,5.80
2023-03-29T07:45:48.670Z,5.32
2023-03-29T07:48:22.127Z,5.15
2023-03-29T07:51:03.739Z,4.93
2023-03-29T07:53:45.257Z,5.47
2023-03-29T07:56:56.494Z,5.63
2023-03-29T07:59:36.682Z,4.60
2023-03-29T08:02:19.605Z,5.25
2023-03-29T08:04:56.759Z,5.65
2023-03-29T08:07:52.873Z,5.15
2023-03-29T08:10:44.666Z,4.95
2023-03-29T08:13:28.218Z,5.13
2023-03-29T08:16:19.565Z,5.20
2023-03-29T08:18:59.751Z,5.30
2023-03-29T08:21:44.991Z,4.93
2023-03-29T08:24:21.142Z,6.03
2023-03-29T08:26:58.100Z,4.68
2023-03-29T08:29:31.445Z,5.30
2023-03-29T08:32:05.569Z,4.95
2023-03-29T08:34:38.796Z,4.82
2023-03-29T08:37:24.479Z,4.40
2023-03-29T08:40:00.266Z,4.55
2023-03-29T08:43:14.082Z,3.88
2023-03-29T08:46:18.901Z,5.38
2023-03-29T08:48:53.849Z,5.97
2023-03-29T08:51:31.306Z,4.80
2023-03-29T08:54:05.965Z,4.80
2023-03-29T08:56:55.117Z,4.15
2023-03-29T08:59:34.554Z,4.68
2023-03-29T09:02:15.950Z,5.18
2023-03-29T09:04:49.384Z,5.05
2023-03-29T09:07:42.422Z,5.10
2023-03-29T09:10:16.995Z,5.00
2023-03-29T09:12:59.145Z,3.38
2023-03-29T09:15:35.578Z,4.35
2023-03-29T09:18:23.210Z,3.78
2023-03-29T09:21:01.364Z,3.05
2023-03-29T09:23:48.017Z,4.07
2023-03-29T09:26:34.954Z,3.97
2023-03-29T09:29:44.948Z,4.28
2023-03-29T09:32:21.431Z,4.78
2023-03-29T09:35:03.213Z,5.10
2023-03-29T09:37:38.008Z,4.57
2023-03-29T09:40:12.932Z,5.10
2023-03-29T09:42:58.345Z,3.75
2023-03-29T09:45:36.347Z,4.30
2023-03-29T09:48:12.421Z,5.20
2023-03-29T09:50:48.234Z,4.85
2023-03-29T09:53:21.862Z,3.90
2023-03-29T09:56:15.733Z,5.97
2023-03-29T09:59:04.180Z,5.47
2023-03-29T10:01:39.398Z,5.30
2023-03-29T10:04:14.207Z,6.20
2023-03-29T10:06:50.884Z,6.30
2023-03-29T10:09:25.186Z,5.60
2023-03-29T10:12:07.955Z,6.57
2023-03-29T10:14:43.411Z,7.40
2023-03-29T10:17:19.840Z,6.90
2023-03-29T10:19:53.317Z,5.50
2023-03-29T10:22:28.858Z,6.47
2023-03-29T10:25:02.049Z,6.25
2023-03-29T10:27:35.269Z,6.97
2023-03-29T10:30:12.770Z,6.00
2023-03-29T10:32:48.403Z,6.65
2023-03-29T10:35:22.339Z,6.50
2023-03-29T10:37:57.489Z,6.23
2023-03-29T10:40:31.705Z,6.22
2023-03-29T10:43:12.917Z,5.38
2023-03-29T10:45:49.129Z,5.70
2023-03-29T10:48:28.679Z,6.53
2023-03-29T10:51:02.557Z,5.70
2023-03-29T10:53:37.508Z,6.45
2023-03-29T10:58:49.586Z,6.03
2023-03-29T11:01:25.481Z,5.88
2023-03-29T11:04:05.571Z,4.95
2023-03-29T11:06:41.081Z,5.20
2023-03-29T11:09:17.760Z,5.13
2023-03-29T11:12:15.579Z,5.05
2023-03-29T11:14:55.605Z,4.38
2023-03-29T11:17:36.474Z,4.93
2023-03-29T11:20:26.287Z,4.40
2023-03-29T11:23:03.226Z,4.95
2023-03-29T11:25:41.818Z,4.95
2023-03-29T11:28:17.476Z,5.05
2023-03-29T11:30:58.470Z,5.57
2023-03-29T11:33:38.610Z,4.18
2023-03-29T11:36:16.528Z,7.15
2023-03-29T11:38:56.348Z,5.72
2023-03-29T11:41:31.802Z,5.70
2023-03-29T11:44:06.677Z,4.93
2023-03-29T11:49:15.755Z,4.30
2023-03-29T11:51:53.538Z,4.75
2023-03-29T11:54:28.530Z,4.32
2023-03-29T11:57:03.067Z,4.82
2023-03-29T11:59:38.635Z,4.63
2023-03-29T12:02:14.377Z,4.97
2023-03-29T12:04:49.496Z,5.03
2023-03-29T12:07:26.674Z,4.57
2023-03-29T12:10:00.681Z,4.72
2023-03-29T12:12:41.669Z,4.80
2023-03-29T12:15:20.122Z,4.38
2023-03-29T12:18:02.931Z,4.25
2023-03-29T12:20:36.949Z,3.65
2023-03-29T12:23:13.946Z,4.70
2023-03-29T12:25:52.111Z,4.18
2023-03-29T12:28:34.394Z,4.15
2023-03-29T12:31:12.932Z,4.88
2023-03-29T12:34:04.136Z,6.03
2023-03-29T12:37:20.919Z,3.90
2023-03-29T12:40:15.170Z,4.63
2023-03-29T12:43:08.533Z,5.07
2023-03-29T12:46:02.856Z,5.05
2023-03-29T12:48:38.089Z,4.78
2023-03-29T12:51:13.650Z,4.85
2023-03-29T12:53:47.139Z,4.18
2023-03-29T12:56:23.436Z,4.50
2023-03-29T12:59:06.377Z,4.68
2023-03-29T13:01:41.282Z,4.70
2023-03-29T13:04:16.829Z,5.35
2023-03-29T13:07:03.735Z,5.18
2023-03-29T13:09:47.865Z,5.28
2023-03-29T13:12:24.938Z,5.22
2023-03-29T13:14:59.069Z,5.70
2023-03-29T13:17:36.120Z,5.95
2023-03-29T13:20:22.731Z,6.88
2023-03-29T13:23:01.210Z,6.60
2023-03-29T13:25:41.119Z,7.00
2023-03-29T13:28:19.626Z,7.40
2023-03-29T13:30:57.179Z,7.55
2023-03-29T13:33:50.567Z,7.97
2023-03-29T13:36:31.921Z,7.90
2023-03-29T13:39:06.924Z,8.05
2023-03-29T13:41:50.317Z,8.43
2023-03-29T13:44:35.943Z,7.43
2023-03-29T13:47:16.235Z,6.15
2023-03-29T13:49:52.401Z,5.60
2023-03-29T13:52:27.419Z,6.28
2023-03-29T13:55:04.430Z,5.63
2023-03-29T13:57:39.378Z,7.20
2023-03-29T14:00:18.101Z,5.35
2023-03-29T14:02:52.527Z,5.55
2023-03-29T14:05:28.861Z,5.18
2023-03-29T14:08:04.668Z,6.05
2023-03-29T14:10:40.828Z,5.70
2023-03-29T14:13:14.730Z,5.10
2023-03-29T14:15:50.470Z,4.60
2023-03-29T14:18:24.152Z,4.05
2023-03-29T14:20:56.889Z,4.78
2023-03-29T14:23:31.326Z,4.82
2023-03-29T14:26:08.196Z,3.90
2023-03-29T14:28:45.885Z,4.70
2023-03-29T14:31:21.081Z,3.88
2023-03-29T14:33:54.338Z,3.85
2023-03-29T14:36:29.895Z,4.25
2023-03-29T14:39:04.076Z,4.10
2023-03-29T14:41:37.687Z,4.22
2023-03-29T14:44:11.518Z,4.38
2023-03-29T14:46:46.710Z,4.20
2023-03-29T14:49:20.583Z,3.35
2023-03-29T14:51:54.694Z,4.47
2023-03-29T14:54:28.191Z,3.75
2023-03-29T14:57:01.422Z,3.70
2023-03-29T14:59:37.268Z,3.67
2023-03-29T15:02:24.984Z,3.13
2023-03-29T15:04:59.569Z,3.35
2023-03-29T15:07:33.412Z,3.30
2023-03-29T15:10:07.339Z,3.60
2023-03-29T15:12:42.999Z,3.20
2023-03-29T15:15:16.286Z,2.67
2023-03-29T15:17:52.698Z,2.90
2023-03-29T15:20:26.746Z,3.05
2023-03-29T15:23:00.699Z,3.27
2023-03-29T15:25:34.824Z,3.33
2023-03-29T15:28:07.520Z,2.92
2023-03-29T15:30:47.764Z,3.47
2023-03-29T15:33:32.978Z,2.83
2023-03-29T15:36:06.965Z,3.10
2023-03-29T15:38:44.424Z,2.95
2023-03-29T15:41:18.411Z,3.08
2023-03-29T15:43:52.246Z,2.75
2023-03-29T15:46:25.026Z,2.95
2023-03-29T15:49:00.837Z,2.85
2023-03-29T15:51:33.607Z,3.00
2023-03-29T15:54:09.131Z,3.00
2023-03-29T15:56:45.603Z,2.83
2023-03-29T15:59:19.650Z,2.95
2023-03-29T16:01:56.921Z,2.58
2023-03-29T16:04:33.529Z,2.40
2023-03-29T16:07:12.217Z,2.25
2023-03-29T16:09:47.718Z,2.55
2023-03-29T16:12:20.579Z,2.60
2023-03-29T16:14:54.456Z,2.90
2023-03-29T16:17:27.255Z,2.83
2023-03-29T16:20:01.544Z,2.75
2023-03-29T16:22:34.231Z,2.47
2023-03-29T16:25:12.740Z,1.92
2023-03-29T16:27:45.930Z,2.03
2023-03-29T16:30:19.675Z,2.20
2023-03-29T16:32:52.404Z,1.90
2023-03-29T16:35:28.236Z,2.15
2023-03-29T16:38:00.915Z,2.03
2023-03-29T16:40:34.284Z,2.03
2023-03-29T16:43:07.649Z,2.20
2023-03-29T16:45:40.541Z,2.40
2023-03-29T16:48:13.739Z,2.13
2023-03-29T16:50:49.213Z,2.05
2023-03-29T16:53:23.588Z,2.30
2023-03-29T16:55:56.555Z,2.10
2023-03-29T16:58:29.176Z,2.47
2023-03-29T17:01:08.676Z,2.33
2023-03-29T17:03:41.844Z,1.67
2023-03-29T17:06:17.001Z,1.73
2023-03-29T17:08:51.184Z,2.13
2023-03-29T17:11:25.004Z,1.70
2023-03-29T17:13:57.691Z,1.53
2023-03-29T17:16:31.265Z,2.20
2023-03-29T17:19:03.940Z,1.48
2023-03-29T17:21:37.890Z,1.70
2023-03-29T17:24:10.798Z,1.65
2023-03-29T17:26:45.276Z,1.70
2023-03-29T17:29:18.655Z,1.38
2023-03-29T17:31:51.430Z,1.55
2023-03-29T17:34:24.244Z,2.20
2023-03-29T17:36:59.093Z,2.00
2023-03-29T17:39:32.030Z,2.05
2023-03-29T17:42:05.450Z,2.63
2023-03-29T17:44:38.447Z,2.20
2023-03-29T17:47:11.316Z,2.38
2023-03-29T17:49:44.724Z,2.30
2023-03-29T17:52:19.279Z,2.75
2023-03-29T17:54:53.467Z,2.10
2023-03-29T17:57:26.281Z,2.05
2023-03-29T17:59:59.088Z,2.63
2023-03-29T18:02:32.066Z,1.90
2023-03-29T18:05:05.276Z,2.10
2023-03-29T18:07:41.774Z,2.10
2023-03-29T18:10:16.295Z,2.17
2023-03-29T18:12:49.324Z,2.70
2023-03-29T18:15:23.944Z,2.30
2023-03-29T18:20:30.593Z,1.90
2023-03-29T18:23:05.716Z,1.92
2023-03-29T18:25:38.651Z,1.73
2023-03-29T18:28:13.624Z,2.00
2023-03-29T18:30:46.266Z,1.70
2023-03-29T18:33:18.948Z,2.40
2023-03-29T18:35:51.984Z,1.60
2023-03-29T18:38:26.111Z,2.10
2023-03-29T18:40:59.176Z,1.70
2023-03-29T18:43:33.397Z,1.40
2023-03-29T18:46:06.540Z,1.83
2023-03-29T18:48:40.894Z,1.48
2023-03-29T18:51:14.831Z,2.25
2023-03-29T18:53:48.804Z,2.35
2023-03-29T18:56:21.538Z,2.28
2023-03-29T18:58:54.355Z,3.00
2023-03-29T19:01:27.056Z,6.03
2023-03-29T19:03:59.730Z,5.38
2023-03-29T19:06:32.672Z,5.13
2023-03-29T19:09:07.393Z,5.00
2023-03-29T19:11:40.014Z,2.28
2023-03-29T19:14:12.706Z,2.53
2023-03-29T19:16:45.452Z,2.40
2023-03-29T19:19:19.140Z,2.83
2023-03-29T19:21:53.194Z,2.42
2023-03-29T19:24:27.197Z,2.30
2023-03-29T19:26:59.862Z,2.53
2023-03-29T19:29:32.558Z,2.17
2023-03-29T19:32:06.694Z,1.98
2023-03-29T19:34:39.570Z,1.80
2023-03-29T19:37:14.711Z,2.25
2023-03-29T19:39:51.493Z,2.03
2023-03-29T19:42:24.328Z,1.83
2023-03-29T19:44:57.012Z,2.28
2023-03-29T19:47:29.742Z,2.15
2023-03-29T19:50:04.261Z,2.28
2023-03-29T19:52:37.121Z,2.13
2023-03-29T19:55:14.170Z,2.45
2023-03-29T19:57:47.726Z,1.90
2023-03-29T20:00:24.350Z,2.00
2023-03-29T20:02:57.205Z,2.45
2023-03-29T20:05:30.061Z,1.77
2023-03-29T20:08:02.831Z,1.67
2023-03-29T20:10:36.955Z,2.20
2023-03-29T20:13:09.597Z,2.13
2023-03-29T20:15:46.065Z,2.08
2023-03-29T20:18:18.693Z,2.00
2023-03-29T20:20:51.338Z,2.45
2023-03-29T20:23:23.936Z,2.60
2023-03-29T20:25:57.992Z,2.40
2023-03-29T20:28:31.306Z,2.47
2023-03-29T20:31:05.229Z,1.90
2023-03-29T20:33:38.507Z,2.28
2023-03-29T20:36:11.314Z,2.20
2023-03-29T20:38:44.088Z,2.97
2023-03-29T20:41:19.420Z,3.58
2023-03-29T20:43:58.389Z,3.38
2023-03-29T20:46:34.101Z,3.40
2023-03-29T20:49:08.874Z,2.50
2023-03-29T20:54:15.116Z,2.95
2023-03-29T20:56:49.223Z,2.85
2023-03-29T20:59:22.525Z,3.25
2023-03-29T21:01:55.243Z,2.88
2023-03-29T21:04:28.031Z,2.50
2023-03-29T21:07:03.175Z,2.60
2023-03-29T21:09:37.154Z,2.85
2023-03-29T21:12:11.220Z,2.63
2023-03-29T21:14:44.575Z,2.60
2023-03-29T21:17:17.192Z,2.25
2023-03-29T21:19:49.891Z,2.25
2023-03-29T21:22:23.184Z,1.92
2023-03-29T21:24:55.793Z,2.17
2023-03-29T21:27:29.860Z,2.58
2023-03-29T21:30:02.520Z,2.20
2023-03-29T21:32:35.181Z,2.35
2023-03-29T21:35:08.402Z,2.10
2023-03-29T21:37:41.127Z,2.20
2023-03-29T21:40:14.351Z,2.00
2023-03-29T21:42:48.396Z,2.22
2023-03-29T21:45:21.062Z,2.47
2023-03-29T21:47:54.071Z,2.30
2023-03-29T21:50:26.674Z,2.03
2023-03-29T21:52:59.251Z,1.88
2023-03-29T21:55:33.995Z,2.22
2023-03-29T22:00:40.443Z,2.47
2023-03-29T22:03:13.247Z,1.98
2023-03-29T22:05:56.029Z,2.13
2023-03-29T22:08:28.848Z,2.75
2023-03-29T22:11:08.925Z,2.35
2023-03-29T22:13:42.655Z,2.15
2023-03-29T22:16:18.227Z,2.20
2023-03-29T22:18:52.217Z,3.05
2023-03-29T22:21:26.468Z,2.33
2023-03-29T22:24:00.162Z,2.63
2023-03-29T22:26:33.874Z,2.00
2023-03-29T22:29:06.520Z,2.33
2023-03-29T22:31:40.486Z,2.15
2023-03-29T22:34:13.479Z,1.70
2023-03-29T22:36:46.238Z,2.55
2023-03-29T22:39:18.878Z,2.80
2023-03-29T22:41:51.550Z,2.28
2023-03-29T22:44:24.186Z,2.38
2023-03-29T22:46:58.233Z,2.40
2023-03-29T22:49:31.169Z,2.40
2023-03-29T22:52:03.895Z,2.25
2023-03-29T22:54:36.695Z,2.35
2023-03-29T22:57:09.428Z,2.22
2023-03-29T22:59:42.149Z,2.05
2023-03-29T23:02:16.178Z,2.40
2023-03-29T23:04:49.357Z,2.50
2023-03-29T23:07:22.002Z,2.33
2023-03-29T23:09:54.660Z,2.20
2023-03-29T23:12:27.306Z,2.63
2023-03-29T23:15:00.103Z,1.95
2023-03-29T23:17:35.167Z,2.13
2023-03-29T23:20:08.798Z,1.85
2023-03-29T23:22:41.401Z,1.90
2023-03-29T23:25:14.072Z,2.63
2023-03-29T23:27:46.905Z,2.75
2023-03-29T23:30:19.726Z,2.45
2023-03-29T23:32:54.288Z,1.95
2023-03-29T23:35:27.360Z,1.70
2023-03-29T23:38:00.694Z,2.20
2023-03-29T23:40:33.891Z,2.10
2023-03-29T23:43:06.577Z,2.10
2023-03-29T23:45:39.493Z,2.47
2023-03-29T23:48:13.940Z,2.67
2023-03-29T23:50:47.224Z,2.15
2023-03-29T23:53:20.719Z,2.20
2023-03-29T23:55:56.182Z,1.92
2023-03-29T23:58:29.236Z,2.42
